sensor_id;sensor_type;location;lat;lon;timestamp;temperature;humidity
16674;DHT22;8450;52.654;10.326;2023-05-19T03:57:47;8.20;99.90
16674;DHT22;8450;52.654;10.326;2023-05-19T04:00:13;8.10;99.90
16674;DHT22;8450;52.654;10.326;2023-05-19T04:02:39;8.10;99.90
16674;DHT22;8450;52.654;10.326;2023-05-19T04:05:06;8.10;99.90
16674;DHT22;8450;52.654;10.326;2023-05-19T04:07:33;8.10;99.90
16674;DHT22;8450;52.654;10.326;2023-05-19T04:09:58;8.10;99.90
16674;DHT22;8450;52.654;10.326;2023-05-19T04:12:26;8.10;99.90
16674;DHT22;8450;52.654;10.326;2023-05-19T04:14:52;8.10;99.90
16674;DHT22;8450;52.654;10.326;2023-05-19T04:17:18;8.10;99.90
16674;DHT22;8450;52.654;10.326;2023-05-19T04:19:43;8.10;99.90
16674;DHT22;8450;52.654;10.326;2023-05-19T04:22:09;8.10;99.90
16674;DHT22;8450;52.654;10.326;2023-05-19T04:24:35;8.10;99.90
16674;DHT22;8450;52.654;10.326;2023-05-19T04:27:01;8.10;99.90
16674;DHT22;8450;52.654;10.326;2023-05-19T04:29:29;8.10;99.90
16674;DHT22;8450;52.654;10.326;2023-05-19T04:31:55;8.20;99.90
16674;DHT22;8450;52.654;10.326;2023-05-19T04:34:25;8.20;99.90
16674;DHT22;8450;52.654;10.326;2023-05-19T04:36:53;8.20;99.90
16674;DHT22;8450;52.654;10.326;2023-05-19T04:39:20;8.20;99.90
16674;DHT22;8450;52.654;10.326;2023-05-19T04:41:46;8.20;99.90
16674;DHT22;8450;52.654;10.326;2023-05-19T04:44:12;8.20;99.90
16674;DHT22;8450;52.654;10.326;2023-05-19T04:46:43;8.20;99.90
16674;DHT22;8450;52.654;10.326;2023-05-19T04:49:10;8.30;99.90
16674;DHT22;8450;52.654;10.326;2023-05-19T04:51:37;8.30;99.90
16674;DHT22;8450;52.654;10.326;2023-05-19T04:54:08;8.40;99.90
16674;DHT22;8450;52.654;10.326;2023-05-19T04:56:35;8.40;99.90
16674;DHT22;8450;52.654;10.326;2023-05-19T04:59:00;8.50;99.90
16674;DHT22;8450;52.654;10.326;2023-05-19T05:01:26;8.50;99.90
16674;DHT22;8450;52.654;10.326;2023-05-19T05:03:54;8.50;99.90
16674;DHT22;8450;52.654;10.326;2023-05-19T05:06:20;8.60;99.90
16674;DHT22;8450;52.654;10.326;2023-05-19T05:08:47;8.70;99.90
16674;DHT22;8450;52.654;10.326;2023-05-19T05:11:13;8.80;99.90
16674;DHT22;8450;52.654;10.326;2023-05-19T05:13:40;8.80;99.90
16674;DHT22;8450;52.654;10.326;2023-05-19T05:16:06;8.90;99.90
16674;DHT22;8450;52.654;10.326;2023-05-19T05:18:33;8.90;99.90
16674;DHT22;8450;52.654;10.326;2023-05-19T05:20:59;9.00;99.90
16674;DHT22;8450;52.654;10.326;2023-05-19T05:23:25;9.10;99.90
16674;DHT22;8450;52.654;10.326;2023-05-19T05:25:51;9.20;99.90
16674;DHT22;8450;52.654;10.326;2023-05-19T05:28:17;9.20;99.90
16674;DHT22;8450;52.654;10.326;2023-05-19T05:30:44;9.30;99.90
16674;DHT22;8450;52.654;10.326;2023-05-19T05:33:13;9.40;99.90
16674;DHT22;8450;52.654;10.326;2023-05-19T05:35:40;9.50;99.90
16674;DHT22;8450;52.654;10.326;2023-05-19T05:38:07;9.60;99.90
16674;DHT22;8450;52.654;10.326;2023-05-19T05:40:33;9.60;99.90
16674;DHT22;8450;52.654;10.326;2023-05-19T05:42:59;9.70;99.90
16674;DHT22;8450;52.654;10.326;2023-05-19T05:45:27;9.80;99.90
16674;DHT22;8450;52.654;10.326;2023-05-19T05:47:54;9.90;99.90
16674;DHT22;8450;52.654;10.326;2023-05-19T05:50:20;9.90;99.90
16674;DHT22;8450;52.654;10.326;2023-05-19T05:52:46;10.00;99.90
16674;DHT22;8450;52.654;10.326;2023-05-19T05:55:14;10.10;99.90
16674;DHT22;8450;52.654;10.326;2023-05-19T05:57:39;10.10;99.90
16674;DHT22;8450;52.654;10.326;2023-05-19T06:00:09;10.20;99.90
16674;DHT22;8450;52.654;10.326;2023-05-19T06:02:44;10.30;99.90
16674;DHT22;8450;52.654;10.326;2023-05-19T06:05:16;10.30;99.90
16674;DHT22;8450;52.654;10.326;2023-05-19T06:07:42;10.40;99.90
16674;DHT22;8450;52.654;10.326;2023-05-19T06:10:09;10.40;99.90
16674;DHT22;8450;52.654;10.326;2023-05-19T06:12:35;10.50;99.90
16674;DHT22;8450;52.654;10.326;2023-05-19T06:15:05;10.60;99.90
16674;DHT22;8450;52.654;10.326;2023-05-19T06:17:51;10.60;99.90
16674;DHT22;8450;52.654;10.326;2023-05-19T06:20:17;10.70;99.90
16674;DHT22;8450;52.654;10.326;2023-05-19T06:22:44;10.80;99.90
16674;DHT22;8450;52.654;10.326;2023-05-19T06:25:10;10.80;99.90
16674;DHT22;8450;52.654;10.326;2023-05-19T06:27:35;10.90;99.90
16674;DHT22;8450;52.654;10.326;2023-05-19T06:30:02;11.00;99.90
16674;DHT22;8450;52.654;10.326;2023-05-19T06:32:32;11.00;99.90
16674;DHT22;8450;52.654;10.326;2023-05-19T06:34:58;11.10;99.90
16674;DHT22;8450;52.654;10.326;2023-05-19T06:37:24;11.10;99.90
16674;DHT22;8450;52.654;10.326;2023-05-19T06:39:51;11.20;99.90
16674;DHT22;8450;52.654;10.326;2023-05-19T06:42:21;11.30;99.90
16674;DHT22;8450;52.654;10.326;2023-05-19T06:45:07;11.30;99.90
16674;DHT22;8450;52.654;10.326;2023-05-19T06:47:34;11.40;99.90
16674;DHT22;8450;52.654;10.326;2023-05-19T06:50:00;11.40;99.90
16674;DHT22;8450;52.654;10.326;2023-05-19T06:52:30;11.50;99.90
16674;DHT22;8450;52.654;10.326;2023-05-19T06:54:55;11.60;99.90
16674;DHT22;8450;52.654;10.326;2023-05-19T06:57:21;11.60;99.90
16674;DHT22;8450;52.654;10.326;2023-05-19T06:59:46;11.70;99.90
16674;DHT22;8450;52.654;10.326;2023-05-19T07:02:13;11.80;99.90
16674;DHT22;8450;52.654;10.326;2023-05-19T07:04:38;11.80;99.90
16674;DHT22;8450;52.654;10.326;2023-05-19T07:07:05;11.90;99.90
16674;DHT22;8450;52.654;10.326;2023-05-19T07:09:31;12.00;99.90
16674;DHT22;8450;52.654;10.326;2023-05-19T07:11:57;12.10;99.90
16674;DHT22;8450;52.654;10.326;2023-05-19T07:14:22;12.20;99.90
16674;DHT22;8450;52.654;10.326;2023-05-19T07:16:48;12.20;99.90
16674;DHT22;8450;52.654;10.326;2023-05-19T07:19:13;12.30;99.90
16674;DHT22;8450;52.654;10.326;2023-05-19T07:21:39;12.40;99.90
16674;DHT22;8450;52.654;10.326;2023-05-19T07:24:06;12.50;99.90
16674;DHT22;8450;52.654;10.326;2023-05-19T07:26:32;12.60;99.90
16674;DHT22;8450;52.654;10.326;2023-05-19T07:28:57;12.70;99.90
16674;DHT22;8450;52.654;10.326;2023-05-19T07:31:23;12.80;99.90
16674;DHT22;8450;52.654;10.326;2023-05-19T07:33:49;12.80;99.90
16674;DHT22;8450;52.654;10.326;2023-05-19T07:36:14;13.00;99.90
16674;DHT22;8450;52.654;10.326;2023-05-19T07:38:40;13.10;99.90
16674;DHT22;8450;52.654;10.326;2023-05-19T07:41:05;13.20;99.90
16674;DHT22;8450;52.654;10.326;2023-05-19T07:43:31;13.40;99.90
16674;DHT22;8450;52.654;10.326;2023-05-19T07:45:56;13.70;99.90
16674;DHT22;8450;52.654;10.326;2023-05-19T07:48:22;13.90;99.90
16674;DHT22;8450;52.654;10.326;2023-05-19T07:50:50;14.10;99.90
16674;DHT22;8450;52.654;10.326;2023-05-19T07:53:17;14.30;99.90
16674;DHT22;8450;52.654;10.326;2023-05-19T07:55:43;14.60;99.90
16674;DHT22;8450;52.654;10.326;2023-05-19T07:58:08;14.80;99.90
16674;DHT22;8450;52.654;10.326;2023-05-19T08:00:34;15.10;99.90
16674;DHT22;8450;52.654;10.326;2023-05-19T08:02:59;15.30;99.90
16674;DHT22;8450;52.654;10.326;2023-05-19T08:05:26;15.50;99.90
16674;DHT22;8450;52.654;10.326;2023-05-19T08:07:51;15.80;99.90
16674;DHT22;8450;52.654;10.326;2023-05-19T08:10:17;16.10;99.90
16674;DHT22;8450;52.654;10.326;2023-05-19T08:12:43;16.30;99.90
16674;DHT22;8450;52.654;10.326;2023-05-19T08:15:08;16.60;99.90
16674;DHT22;8450;52.654;10.326;2023-05-19T08:17:36;16.90;99.90
16674;DHT22;8450;52.654;10.326;2023-05-19T08:20:02;17.10;99.90
16674;DHT22;8450;52.654;10.326;2023-05-19T08:22:29;17.30;99.90
16674;DHT22;8450;52.654;10.326;2023-05-19T08:24:55;17.70;99.90
16674;DHT22;8450;52.654;10.326;2023-05-19T08:27:21;18.00;99.90
16674;DHT22;8450;52.654;10.326;2023-05-19T08:29:46;18.30;99.90
16674;DHT22;8450;52.654;10.326;2023-05-19T08:32:12;18.60;99.90
16674;DHT22;8450;52.654;10.326;2023-05-19T08:34:37;18.80;99.90
16674;DHT22;8450;52.654;10.326;2023-05-19T08:37:03;19.10;99.90
16674;DHT22;8450;52.654;10.326;2023-05-19T08:39:29;19.30;99.90
16674;DHT22;8450;52.654;10.326;2023-05-19T08:41:54;19.40;99.90
16674;DHT22;8450;52.654;10.326;2023-05-19T08:44:21;19.80;99.90
16674;DHT22;8450;52.654;10.326;2023-05-19T08:46:47;20.10;99.90
16674;DHT22;8450;52.654;10.326;2023-05-19T08:49:13;20.40;99.90
16674;DHT22;8450;52.654;10.326;2023-05-19T08:52:02;20.70;99.90
16674;DHT22;8450;52.654;10.326;2023-05-19T08:54:43;21.00;99.90
16674;DHT22;8450;52.654;10.326;2023-05-19T08:57:10;21.20;99.90
16674;DHT22;8450;52.654;10.326;2023-05-19T08:59:36;21.50;99.90
16674;DHT22;8450;52.654;10.326;2023-05-19T09:02:03;21.80;99.90
16674;DHT22;8450;52.654;10.326;2023-05-19T09:04:29;22.10;99.90
16674;DHT22;8450;52.654;10.326;2023-05-19T09:06:55;22.30;99.90
16674;DHT22;8450;52.654;10.326;2023-05-19T09:09:21;22.60;99.90
16674;DHT22;8450;52.654;10.326;2023-05-19T09:11:46;22.70;99.90
16674;DHT22;8450;52.654;10.326;2023-05-19T09:14:12;23.00;99.90
16674;DHT22;8450;52.654;10.326;2023-05-19T09:16:38;23.20;99.90
16674;DHT22;8450;52.654;10.326;2023-05-19T09:19:03;23.30;99.90
16674;DHT22;8450;52.654;10.326;2023-05-19T09:21:29;23.50;99.90
16674;DHT22;8450;52.654;10.326;2023-05-19T09:24:05;23.70;99.90
16674;DHT22;8450;52.654;10.326;2023-05-19T09:26:37;23.90;99.90
16674;DHT22;8450;52.654;10.326;2023-05-19T09:29:10;24.10;99.90
16674;DHT22;8450;52.654;10.326;2023-05-19T09:31:36;24.10;99.90
16674;DHT22;8450;52.654;10.326;2023-05-19T09:34:01;24.20;99.90
16674;DHT22;8450;52.654;10.326;2023-05-19T09:36:29;24.40;99.90
16674;DHT22;8450;52.654;10.326;2023-05-19T09:38:55;24.50;99.90
16674;DHT22;8450;52.654;10.326;2023-05-19T09:41:21;24.60;99.90
16674;DHT22;8450;52.654;10.326;2023-05-19T09:43:53;24.60;99.90
16674;DHT22;8450;52.654;10.326;2023-05-19T09:46:24;24.80;99.90
16674;DHT22;8450;52.654;10.326;2023-05-19T09:48:56;25.10;99.90
16674;DHT22;8450;52.654;10.326;2023-05-19T09:51:23;25.10;99.90
16674;DHT22;8450;52.654;10.326;2023-05-19T09:53:51;25.10;99.90
16674;DHT22;8450;52.654;10.326;2023-05-19T09:56:17;25.10;99.90
16674;DHT22;8450;52.654;10.326;2023-05-19T09:58:48;23.50;99.90
16674;DHT22;8450;52.654;10.326;2023-05-19T10:01:14;22.70;99.90
16674;DHT22;8450;52.654;10.326;2023-05-19T10:03:40;22.40;99.90
16674;DHT22;8450;52.654;10.326;2023-05-19T10:06:06;22.30;99.90
16674;DHT22;8450;52.654;10.326;2023-05-19T10:08:33;20.50;99.30
16674;DHT22;8450;52.654;10.326;2023-05-19T10:11:00;20.90;99.90
16674;DHT22;8450;52.654;10.326;2023-05-19T10:13:28;22.90;99.90
16674;DHT22;8450;52.654;10.326;2023-05-19T10:15:54;28.60;96.50
16674;DHT22;8450;52.654;10.326;2023-05-19T10:18:21;28.30;95.30
16674;DHT22;8450;52.654;10.326;2023-05-19T10:20:49;30.10;95.70
16674;DHT22;8450;52.654;10.326;2023-05-19T10:23:15;32.80;93.30
16674;DHT22;8450;52.654;10.326;2023-05-19T10:25:41;35.50;91.80
16674;DHT22;8450;52.654;10.326;2023-05-19T10:28:16;31.20;90.30
16674;DHT22;8450;52.654;10.326;2023-05-19T10:30:45;27.60;92.60
16674;DHT22;8450;52.654;10.326;2023-05-19T10:33:15;28.10;94.10
16674;DHT22;8450;52.654;10.326;2023-05-19T10:36:12;28.40;92.50
16674;DHT22;8450;52.654;10.326;2023-05-19T10:38:47;26.30;92.90
16674;DHT22;8450;52.654;10.326;2023-05-19T10:41:32;24.70;93.30
16674;DHT22;8450;52.654;10.326;2023-05-19T10:44:11;23.60;93.60
16674;DHT22;8450;52.654;10.326;2023-05-19T10:46:39;24.60;94.20
16674;DHT22;8450;52.654;10.326;2023-05-19T10:49:08;30.00;91.70
16674;DHT22;8450;52.654;10.326;2023-05-19T10:51:34;29.50;91.20
16674;DHT22;8450;52.654;10.326;2023-05-19T10:54:02;26.50;91.30
16674;DHT22;8450;52.654;10.326;2023-05-19T10:56:32;24.80;92.10
16674;DHT22;8450;52.654;10.326;2023-05-19T10:59:01;24.50;92.40
16674;DHT22;8450;52.654;10.326;2023-05-19T11:01:32;24.20;93.10
16674;DHT22;8450;52.654;10.326;2023-05-19T11:04:04;24.50;93.90
16674;DHT22;8450;52.654;10.326;2023-05-19T11:06:32;24.00;93.00
16674;DHT22;8450;52.654;10.326;2023-05-19T11:09:03;28.00;93.60
16674;DHT22;8450;52.654;10.326;2023-05-19T11:11:52;28.30;92.00
16674;DHT22;8450;52.654;10.326;2023-05-19T11:14:19;25.60;92.50
16674;DHT22;8450;52.654;10.326;2023-05-19T11:16:50;24.50;93.80
16674;DHT22;8450;52.654;10.326;2023-05-19T11:19:29;23.90;93.80
16674;DHT22;8450;52.654;10.326;2023-05-19T11:21:56;23.70;94.20
16674;DHT22;8450;52.654;10.326;2023-05-19T11:24:45;23.80;94.40
16674;DHT22;8450;52.654;10.326;2023-05-19T11:27:17;23.90;94.20
16674;DHT22;8450;52.654;10.326;2023-05-19T11:29:43;24.10;94.10
16674;DHT22;8450;52.654;10.326;2023-05-19T11:32:10;23.60;94.00
16674;DHT22;8450;52.654;10.326;2023-05-19T11:34:36;23.20;93.80
16674;DHT22;8450;52.654;10.326;2023-05-19T11:37:03;23.00;94.70
16674;DHT22;8450;52.654;10.326;2023-05-19T11:39:30;22.90;94.80
16674;DHT22;8450;52.654;10.326;2023-05-19T11:41:56;24.80;95.20
16674;DHT22;8450;52.654;10.326;2023-05-19T11:44:21;29.80;94.00
16674;DHT22;8450;52.654;10.326;2023-05-19T11:46:47;35.40;91.00
16674;DHT22;8450;52.654;10.326;2023-05-19T11:49:14;37.60;88.00
16674;DHT22;8450;52.654;10.326;2023-05-19T11:51:42;33.10;82.50
16674;DHT22;8450;52.654;10.326;2023-05-19T11:54:09;32.60;85.00
16674;DHT22;8450;52.654;10.326;2023-05-19T11:56:39;28.00;87.10
16674;DHT22;8450;52.654;10.326;2023-05-19T11:59:06;25.70;88.40
16674;DHT22;8450;52.654;10.326;2023-05-19T12:01:32;25.40;90.30
16674;DHT22;8450;52.654;10.326;2023-05-19T12:03:58;28.70;91.10
16674;DHT22;8450;52.654;10.326;2023-05-19T12:06:25;33.30;88.40
16674;DHT22;8450;52.654;10.326;2023-05-19T12:08:51;33.50;86.40
16674;DHT22;8450;52.654;10.326;2023-05-19T12:11:18;34.30;85.70
16674;DHT22;8450;52.654;10.326;2023-05-19T12:13:44;35.20;82.60
16674;DHT22;8450;52.654;10.326;2023-05-19T12:16:09;35.90;80.50
16674;DHT22;8450;52.654;10.326;2023-05-19T12:18:36;36.20;79.60
16674;DHT22;8450;52.654;10.326;2023-05-19T12:21:03;32.80;79.80
16674;DHT22;8450;52.654;10.326;2023-05-19T12:23:29;28.70;81.40
16674;DHT22;8450;52.654;10.326;2023-05-19T12:25:57;26.70;84.40
16674;DHT22;8450;52.654;10.326;2023-05-19T12:28:23;25.90;87.40
16674;DHT22;8450;52.654;10.326;2023-05-19T12:30:50;29.10;84.40
16674;DHT22;8450;52.654;10.326;2023-05-19T12:33:20;32.10;82.70
16674;DHT22;8450;52.654;10.326;2023-05-19T12:35:47;35.80;80.00
16674;DHT22;8450;52.654;10.326;2023-05-19T12:38:14;36.30;76.40
16674;DHT22;8450;52.654;10.326;2023-05-19T12:40:41;37.80;74.10
16674;DHT22;8450;52.654;10.326;2023-05-19T12:43:07;37.70;74.40
16674;DHT22;8450;52.654;10.326;2023-05-19T12:45:34;38.20;71.50
16674;DHT22;8450;52.654;10.326;2023-05-19T12:48:10;38.30;71.20
16674;DHT22;8450;52.654;10.326;2023-05-19T12:50:36;38.90;69.60
16674;DHT22;8450;52.654;10.326;2023-05-19T12:53:02;40.00;68.30
16674;DHT22;8450;52.654;10.326;2023-05-19T12:55:28;38.90;66.60
16674;DHT22;8450;52.654;10.326;2023-05-19T12:57:53;38.70;66.80
16674;DHT22;8450;52.654;10.326;2023-05-19T13:00:22;37.30;67.30
16674;DHT22;8450;52.654;10.326;2023-05-19T13:03:04;34.40;66.40
16674;DHT22;8450;52.654;10.326;2023-05-19T13:05:37;30.40;70.10
16674;DHT22;8450;52.654;10.326;2023-05-19T13:10:34;32.00;73.00
16674;DHT22;8450;52.654;10.326;2023-05-19T13:13:00;35.60;70.50
16674;DHT22;8450;52.654;10.326;2023-05-19T13:15:27;37.70;68.30
16674;DHT22;8450;52.654;10.326;2023-05-19T13:17:59;32.10;66.70
16674;DHT22;8450;52.654;10.326;2023-05-19T13:20:25;30.20;70.80
16674;DHT22;8450;52.654;10.326;2023-05-19T13:22:51;33.00;69.20
16674;DHT22;8450;52.654;10.326;2023-05-19T13:25:17;30.30;70.80
16674;DHT22;8450;52.654;10.326;2023-05-19T13:27:46;28.70;72.20
16674;DHT22;8450;52.654;10.326;2023-05-19T13:30:12;27.50;74.70
16674;DHT22;8450;52.654;10.326;2023-05-19T13:32:38;26.60;76.00
16674;DHT22;8450;52.654;10.326;2023-05-19T13:35:04;28.40;77.10
16674;DHT22;8450;52.654;10.326;2023-05-19T13:37:30;32.00;71.20
16674;DHT22;8450;52.654;10.326;2023-05-19T13:39:55;34.50;68.60
16674;DHT22;8450;52.654;10.326;2023-05-19T13:42:24;36.10;67.50
16674;DHT22;8450;52.654;10.326;2023-05-19T13:44:53;37.00;66.10
16674;DHT22;8450;52.654;10.326;2023-05-19T13:47:19;37.30;64.70
16674;DHT22;8450;52.654;10.326;2023-05-19T13:49:45;37.10;64.80
16674;DHT22;8450;52.654;10.326;2023-05-19T13:52:10;36.60;63.10
16674;DHT22;8450;52.654;10.326;2023-05-19T13:54:37;38.00;64.50
16674;DHT22;8450;52.654;10.326;2023-05-19T13:57:02;37.20;65.00
16674;DHT22;8450;52.654;10.326;2023-05-19T13:59:28;34.60;64.60
16674;DHT22;8450;52.654;10.326;2023-05-19T14:01:54;32.80;67.10
16674;DHT22;8450;52.654;10.326;2023-05-19T14:04:19;31.30;68.00
16674;DHT22;8450;52.654;10.326;2023-05-19T14:06:45;29.10;71.10
16674;DHT22;8450;52.654;10.326;2023-05-19T14:09:11;28.00;71.60
16674;DHT22;8450;52.654;10.326;2023-05-19T14:11:37;27.00;75.50
16674;DHT22;8450;52.654;10.326;2023-05-19T14:14:03;26.50;74.60
16674;DHT22;8450;52.654;10.326;2023-05-19T14:16:28;27.10;73.60
16674;DHT22;8450;52.654;10.326;2023-05-19T14:18:55;26.30;72.50
16674;DHT22;8450;52.654;10.326;2023-05-19T14:21:21;26.40;73.50
16674;DHT22;8450;52.654;10.326;2023-05-19T14:23:47;27.80;75.50
16674;DHT22;8450;52.654;10.326;2023-05-19T14:26:12;30.20;73.00
16674;DHT22;8450;52.654;10.326;2023-05-19T14:28:38;32.90;70.70
16674;DHT22;8450;52.654;10.326;2023-05-19T14:31:04;34.40;66.60
16674;DHT22;8450;52.654;10.326;2023-05-19T14:33:30;34.60;67.40
16674;DHT22;8450;52.654;10.326;2023-05-19T14:35:56;34.20;65.80
16674;DHT22;8450;52.654;10.326;2023-05-19T14:38:24;32.70;68.80
16674;DHT22;8450;52.654;10.326;2023-05-19T14:40:50;33.70;68.10
16674;DHT22;8450;52.654;10.326;2023-05-19T14:43:15;33.60;65.20
16674;DHT22;8450;52.654;10.326;2023-05-19T14:45:41;33.80;63.90
16674;DHT22;8450;52.654;10.326;2023-05-19T14:48:07;35.00;66.60
16674;DHT22;8450;52.654;10.326;2023-05-19T14:50:33;35.90;62.90
16674;DHT22;8450;52.654;10.326;2023-05-19T14:52:58;35.90;65.50
16674;DHT22;8450;52.654;10.326;2023-05-19T14:55:24;35.70;66.80
16674;DHT22;8450;52.654;10.326;2023-05-19T14:57:50;33.80;65.40
16674;DHT22;8450;52.654;10.326;2023-05-19T15:00:16;30.60;67.10
16674;DHT22;8450;52.654;10.326;2023-05-19T15:02:42;28.90;70.50
16674;DHT22;8450;52.654;10.326;2023-05-19T15:05:08;27.60;71.60
16674;DHT22;8450;52.654;10.326;2023-05-19T15:07:33;26.70;70.90
16674;DHT22;8450;52.654;10.326;2023-05-19T15:09:59;26.10;70.20
16674;DHT22;8450;52.654;10.326;2023-05-19T15:12:26;25.70;71.90
16674;DHT22;8450;52.654;10.326;2023-05-19T15:14:51;25.80;72.80
16674;DHT22;8450;52.654;10.326;2023-05-19T15:17:17;25.90;72.70
16674;DHT22;8450;52.654;10.326;2023-05-19T15:19:43;25.90;73.80
16674;DHT22;8450;52.654;10.326;2023-05-19T15:22:08;25.50;74.80
16674;DHT22;8450;52.654;10.326;2023-05-19T15:24:34;25.40;74.90
16674;DHT22;8450;52.654;10.326;2023-05-19T15:27:00;25.40;75.10
16674;DHT22;8450;52.654;10.326;2023-05-19T15:29:26;25.00;74.30
16674;DHT22;8450;52.654;10.326;2023-05-19T15:31:52;24.80;75.50
16674;DHT22;8450;52.654;10.326;2023-05-19T15:34:20;24.90;76.50
16674;DHT22;8450;52.654;10.326;2023-05-19T15:36:46;24.90;76.20
16674;DHT22;8450;52.654;10.326;2023-05-19T15:39:12;24.90;77.00
16674;DHT22;8450;52.654;10.326;2023-05-19T15:41:38;25.20;76.90
16674;DHT22;8450;52.654;10.326;2023-05-19T15:44:04;25.40;78.00
16674;DHT22;8450;52.654;10.326;2023-05-19T15:46:31;25.50;78.60
16674;DHT22;8450;52.654;10.326;2023-05-19T15:48:57;25.20;76.30
16674;DHT22;8450;52.654;10.326;2023-05-19T15:51:23;25.20;76.60
16674;DHT22;8450;52.654;10.326;2023-05-19T15:53:48;24.80;78.00
16674;DHT22;8450;52.654;10.326;2023-05-19T15:56:14;24.40;78.80
16674;DHT22;8450;52.654;10.326;2023-05-19T15:58:39;24.10;78.30
16674;DHT22;8450;52.654;10.326;2023-05-19T16:01:05;23.80;78.10
16674;DHT22;8450;52.654;10.326;2023-05-19T16:03:31;23.80;79.80
16674;DHT22;8450;52.654;10.326;2023-05-19T16:05:57;23.90;80.80
16674;DHT22;8450;52.654;10.326;2023-05-19T16:08:23;23.80;78.80
16674;DHT22;8450;52.654;10.326;2023-05-19T16:10:49;23.50;79.30
16674;DHT22;8450;52.654;10.326;2023-05-19T16:13:15;23.50;79.40
16674;DHT22;8450;52.654;10.326;2023-05-19T16:15:40;23.60;79.10
16674;DHT22;8450;52.654;10.326;2023-05-19T16:18:06;23.60;80.00
16674;DHT22;8450;52.654;10.326;2023-05-19T16:20:32;23.60;78.70
16674;DHT22;8450;52.654;10.326;2023-05-19T16:22:57;23.60;78.90
16674;DHT22;8450;52.654;10.326;2023-05-19T16:25:23;23.80;80.20
16674;DHT22;8450;52.654;10.326;2023-05-19T16:27:49;23.70;80.50
16674;DHT22;8450;52.654;10.326;2023-05-19T16:30:15;23.50;80.40
16674;DHT22;8450;52.654;10.326;2023-05-19T16:32:41;23.50;80.90
16674;DHT22;8450;52.654;10.326;2023-05-19T16:35:07;23.40;81.80
16674;DHT22;8450;52.654;10.326;2023-05-19T16:37:33;23.30;81.60
16674;DHT22;8450;52.654;10.326;2023-05-19T16:39:59;22.90;79.70
16674;DHT22;8450;52.654;10.326;2023-05-19T16:42:24;22.50;79.40
16674;DHT22;8450;52.654;10.326;2023-05-19T16:44:50;21.80;79.60
16674;DHT22;8450;52.654;10.326;2023-05-19T16:47:15;21.80;78.10
16674;DHT22;8450;52.654;10.326;2023-05-19T16:49:41;22.10;78.70
16674;DHT22;8450;52.654;10.326;2023-05-19T16:52:08;22.30;79.50
16674;DHT22;8450;52.654;10.326;2023-05-19T16:54:34;22.30;79.60
16674;DHT22;8450;52.654;10.326;2023-05-19T16:57:00;22.30;78.90
16674;DHT22;8450;52.654;10.326;2023-05-19T16:59:26;22.40;78.80
16674;DHT22;8450;52.654;10.326;2023-05-19T17:01:52;22.30;79.70
16674;DHT22;8450;52.654;10.326;2023-05-19T17:04:17;22.10;80.00
16674;DHT22;8450;52.654;10.326;2023-05-19T17:06:43;21.70;80.00
16674;DHT22;8450;52.654;10.326;2023-05-19T17:09:10;21.50;79.10
16674;DHT22;8450;52.654;10.326;2023-05-19T17:11:36;21.40;79.90
16674;DHT22;8450;52.654;10.326;2023-05-19T17:14:01;21.30;78.70
16674;DHT22;8450;52.654;10.326;2023-05-19T17:16:35;21.20;78.90
16674;DHT22;8450;52.654;10.326;2023-05-19T17:19:01;21.10;79.00
16674;DHT22;8450;52.654;10.326;2023-05-19T17:21:27;21.00;79.00
16674;DHT22;8450;52.654;10.326;2023-05-19T17:23:52;21.00;79.50
16674;DHT22;8450;52.654;10.326;2023-05-19T17:26:18;20.90;79.20
16674;DHT22;8450;52.654;10.326;2023-05-19T17:28:44;20.90;79.90
16674;DHT22;8450;52.654;10.326;2023-05-19T17:31:10;20.80;80.60
16674;DHT22;8450;52.654;10.326;2023-05-19T17:33:37;20.90;81.10
16674;DHT22;8450;52.654;10.326;2023-05-19T17:36:03;20.70;81.70
16674;DHT22;8450;52.654;10.326;2023-05-19T17:38:29;20.60;82.90
16674;DHT22;8450;52.654;10.326;2023-05-19T17:41:00;20.50;82.60
16674;DHT22;8450;52.654;10.326;2023-05-19T17:43:26;20.50;83.00
16674;DHT22;8450;52.654;10.326;2023-05-19T17:45:52;20.60;83.40
16674;DHT22;8450;52.654;10.326;2023-05-19T17:48:17;20.70;83.30
16674;DHT22;8450;52.654;10.326;2023-05-19T17:50:46;20.80;83.20
16674;DHT22;8450;52.654;10.326;2023-05-19T17:53:15;20.80;82.80
16674;DHT22;8450;52.654;10.326;2023-05-19T17:55:44;20.80;83.80
16674;DHT22;8450;52.654;10.326;2023-05-19T17:58:12;20.60;82.20
16674;DHT22;8450;52.654;10.326;2023-05-19T18:00:38;20.70;83.90
16674;DHT22;8450;52.654;10.326;2023-05-19T18:03:04;20.60;84.10
16674;DHT22;8450;52.654;10.326;2023-05-19T18:05:30;20.50;84.10
16674;DHT22;8450;52.654;10.326;2023-05-19T18:07:57;20.50;83.50
16674;DHT22;8450;52.654;10.326;2023-05-19T18:10:24;20.40;83.90
16674;DHT22;8450;52.654;10.326;2023-05-19T18:12:51;20.50;84.10
16674;DHT22;8450;52.654;10.326;2023-05-19T18:15:17;20.40;84.20
16674;DHT22;8450;52.654;10.326;2023-05-19T18:17:42;20.20;85.20
16674;DHT22;8450;52.654;10.326;2023-05-19T18:20:08;20.10;84.80
16674;DHT22;8450;52.654;10.326;2023-05-19T18:22:34;19.80;85.90
16674;DHT22;8450;52.654;10.326;2023-05-19T18:25:00;19.80;86.20
16674;DHT22;8450;52.654;10.326;2023-05-19T18:27:25;19.60;86.70
16674;DHT22;8450;52.654;10.326;2023-05-19T18:29:52;19.50;86.80
16674;DHT22;8450;52.654;10.326;2023-05-19T18:32:17;19.40;87.40
